首页
METAR-TAF:

METAR-TAF

机场 :

Roswell International Air Center

羅斯維爾, 新墨西哥州, 美国

纬度: 33-18-29N, 经度: 104-30-28W, 海拔: 1118米

当前天气观测

该预报发布于1小时和5分钟前的00:51 UTC
风速9节,风向西北
温度 13°C
湿度 41%
气压 1014 hPa
能見度: 16.1公里
天空无云

METAR: KROW 230051Z 31009KT 10SM CLR 13/00 A2993 RMK AO2 SLP116 T01280000

时间: 18:56 (01:56 UTC)

预报

该预报发布于2小时和35分钟前的23:21 UTC
预报有效从23日的 00点(UTC)到 23日的 24点(UTC)
风速15节,风向北转西北,有时为22节阵风
能見度: 10公里
多云层高于7000英尺
从 23日的 0100点(UTC)
风速9节,风向北转西北
能見度: 10公里
散云层高于7000英尺
从 23日的 1100点(UTC)
风速12节,风向
能見度: 10公里
散云层高于20000英尺
从 23日的 2000点(UTC)
风速6节,风向多变
能見度: 10公里
散云层高于20000英尺

TAF: KROW 222321Z 2300/2324 33015G22KT P6SM BKN070 FM230100 34009KT P6SM SCT070 FM231100 01012KT P6SM SCT200 FM232000 VRB06KT P6SM SCT200

超过4000个机场的气象观测和天气预报(METAR&TAF报告)。

可查询的气象台以黄色和红色小点在地图上表示。

将鼠标移到小点上方,可查看气象台名称。

然后点击查看天气观测和预报。

如需切换地图:点击带黑十字的绿色按钮放大地图;点击带横线的绿色按钮缩小地图;或者点击绿色箭头查看邻近地区的地图。


METAR-TAF: